createdAt,value
2019-03-01T00:00:15.806Z,78.61
2019-03-01T00:02:47.848Z,78.46
2019-03-01T00:05:44.239Z,78.40
2019-03-01T00:08:17.078Z,78.52
2019-03-01T00:10:50.873Z,78.41
2019-03-01T00:13:52.971Z,77.77
2019-03-01T00:16:42.998Z,77.23
2019-03-01T00:19:38.216Z,77.10
2019-03-01T00:22:14.841Z,77.12
2019-03-01T00:24:54.295Z,76.98
2019-03-01T00:27:28.014Z,77.07
2019-03-01T00:30:07.547Z,77.20
2019-03-01T00:32:50.232Z,77.34
2019-03-01T00:35:52.810Z,77.74
2019-03-01T00:38:26.868Z,77.86
2019-03-01T00:41:15.557Z,77.94
2019-03-01T00:44:04.317Z,78.11
2019-03-01T00:46:43.908Z,78.66
2019-03-01T00:49:15.948Z,79.16
2019-03-01T00:51:46.546Z,79.25
2019-03-01T00:54:16.978Z,79.34
2019-03-01T00:56:47.419Z,79.42
2019-03-01T00:59:18.924Z,79.57
2019-03-01T01:01:49.415Z,79.65
2019-03-01T01:04:22.164Z,79.85
2019-03-01T01:06:55.454Z,79.96
2019-03-01T01:09:29.636Z,80.17
2019-03-01T01:12:01.717Z,80.21
2019-03-01T01:14:33.584Z,80.49
2019-03-01T01:17:04.493Z,80.45
2019-03-01T01:19:34.948Z,80.52
2019-03-01T01:22:05.381Z,80.21
2019-03-01T01:24:37.302Z,79.85
2019-03-01T01:27:08.241Z,79.35
2019-03-01T01:29:38.707Z,79.13
2019-03-01T01:32:09.153Z,78.82
2019-03-01T01:34:39.695Z,78.69
2019-03-01T01:37:10.135Z,78.50
2019-03-01T01:39:41.581Z,78.37
2019-03-01T01:42:12.021Z,78.39
2019-03-01T01:44:42.490Z,78.27
2019-03-01T01:47:12.935Z,78.07
2019-03-01T01:49:43.397Z,77.92
2019-03-01T01:52:13.833Z,77.80
2019-03-01T01:54:44.376Z,78.23
2019-03-01T01:57:14.818Z,78.38
2019-03-01T01:59:46.246Z,78.54
2019-03-01T02:02:16.681Z,78.53
2019-03-01T02:04:47.151Z,78.62
2019-03-01T02:07:17.591Z,78.91
2019-03-01T02:09:48.066Z,79.25
2019-03-01T02:12:18.575Z,79.72
2019-03-01T02:14:49.107Z,79.85
2019-03-01T02:17:19.628Z,80.17
2019-03-01T02:19:50.296Z,80.21
2019-03-01T02:22:20.745Z,80.28
2019-03-01T02:24:51.211Z,80.05
2019-03-01T02:27:24.464Z,80.08
2019-03-01T02:29:54.995Z,80.29
2019-03-01T02:32:37.300Z,80.18
2019-03-01T02:35:11.242Z,80.08
2019-03-01T02:37:41.747Z,79.88
2019-03-01T02:40:14.177Z,79.96
2019-03-01T02:42:44.812Z,79.66
2019-03-01T02:45:17.135Z,80.15
2019-03-01T02:47:47.651Z,80.13
2019-03-01T02:50:19.700Z,79.88
2019-03-01T02:52:51.221Z,79.66
2019-03-01T02:55:21.928Z,79.41
2019-03-01T02:57:52.377Z,79.14
2019-03-01T03:00:27.403Z,78.97
2019-03-01T03:02:57.830Z,79.02
2019-03-01T03:05:28.445Z,78.86
2019-03-01T03:08:03.417Z,78.68
2019-03-01T03:10:33.869Z,78.47
2019-03-01T03:13:06.630Z,78.57
2019-03-01T03:15:44.698Z,78.41
2019-03-01T03:18:15.249Z,78.46
2019-03-01T03:20:45.731Z,78.18
2019-03-01T03:23:16.232Z,78.21
2019-03-01T03:25:46.704Z,77.95
2019-03-01T03:28:17.148Z,77.80
2019-03-01T03:30:47.666Z,77.61
2019-03-01T03:33:18.127Z,77.68
2019-03-01T03:35:48.603Z,77.60
2019-03-01T03:38:19.112Z,77.68
2019-03-01T03:40:49.829Z,77.81
2019-03-01T03:43:22.735Z,77.55
2019-03-01T03:45:52.452Z,77.54
2019-03-01T03:48:23.088Z,77.60
2019-03-01T03:50:53.544Z,77.56
2019-03-01T03:53:23.975Z,77.52
2019-03-01T03:55:54.426Z,77.59
2019-03-01T03:58:24.856Z,77.71
2019-03-01T04:00:55.333Z,77.81
2019-03-01T04:03:25.820Z,77.89
2019-03-01T04:05:56.356Z,77.86
2019-03-01T04:08:26.818Z,78.15
2019-03-01T04:10:57.273Z,78.25
2019-03-01T04:13:27.714Z,77.98
2019-03-01T04:15:58.258Z,78.07
2019-03-01T04:18:28.702Z,77.95
2019-03-01T04:20:59.310Z,77.90
2019-03-01T04:23:29.772Z,77.67
2019-03-01T04:26:00.279Z,77.91
2019-03-01T04:28:30.733Z,77.79
2019-03-01T04:31:02.857Z,77.61
2019-03-01T04:33:33.296Z,77.84
2019-03-01T04:36:03.840Z,77.82
2019-03-01T04:38:34.348Z,77.41
2019-03-01T04:41:04.878Z,77.44
2019-03-01T04:43:35.314Z,77.39
2019-03-01T04:46:05.846Z,77.16
2019-03-01T04:48:36.349Z,77.16
2019-03-01T04:51:06.961Z,77.29
2019-03-01T04:53:37.407Z,77.47
2019-03-01T04:56:07.889Z,77.44
2019-03-01T04:58:38.399Z,77.37
2019-03-01T05:01:08.858Z,77.33
2019-03-01T05:03:39.352Z,77.33
2019-03-01T05:06:09.893Z,77.35
2019-03-01T05:08:40.399Z,77.25
2019-03-01T05:11:10.939Z,77.30
2019-03-01T05:13:41.363Z,77.15
2019-03-01T05:16:12.287Z,77.03
2019-03-01T05:18:42.739Z,77.09
2019-03-01T05:21:13.281Z,77.05
2019-03-01T05:23:43.724Z,76.73
2019-03-01T05:26:14.199Z,76.61
2019-03-01T05:28:44.713Z,76.75
2019-03-01T05:31:15.195Z,76.90
2019-03-01T05:33:45.632Z,76.64
2019-03-01T05:36:16.098Z,76.56
2019-03-01T05:38:46.537Z,76.29
2019-03-01T05:41:16.944Z,76.07
2019-03-01T05:43:47.402Z,75.58
2019-03-01T05:46:17.837Z,75.75
2019-03-01T05:48:48.278Z,75.92
2019-03-01T05:51:18.723Z,75.43
2019-03-01T05:53:49.168Z,75.53
2019-03-01T05:56:19.606Z,75.33
2019-03-01T05:58:53.304Z,75.34
2019-03-01T06:01:27.004Z,75.51
2019-03-01T06:04:03.290Z,75.65
2019-03-01T06:07:01.429Z,75.37
2019-03-01T06:09:50.489Z,75.33
2019-03-01T06:12:44.031Z,74.98
2019-03-01T06:15:32.588Z,75.01
2019-03-01T06:18:24.675Z,75.27
2019-03-01T06:21:01.436Z,74.99
2019-03-01T06:23:37.985Z,75.28
2019-03-01T06:26:23.503Z,75.04
2019-03-01T06:29:15.434Z,74.97
2019-03-01T06:32:03.911Z,75.04
2019-03-01T06:34:52.739Z,75.13
2019-03-01T06:37:28.925Z,74.46
2019-03-01T06:40:16.053Z,74.68
2019-03-01T06:43:10.891Z,74.85
2019-03-01T06:46:03.145Z,74.16
2019-03-01T06:48:35.194Z,74.33
2019-03-01T06:51:07.312Z,73.48
2019-03-01T06:53:37.741Z,73.66
2019-03-01T06:56:08.212Z,73.25
2019-03-01T06:58:38.624Z,72.80
2019-03-01T07:01:11.199Z,72.04
2019-03-01T07:03:41.617Z,72.28
2019-03-01T07:06:12.088Z,72.52
2019-03-01T07:08:42.507Z,72.38
2019-03-01T07:11:12.975Z,72.50
2019-03-01T07:13:43.463Z,72.74
2019-03-01T07:16:14.471Z,72.40
2019-03-01T07:18:44.888Z,72.45
2019-03-01T07:21:15.352Z,71.45
2019-03-01T07:23:45.779Z,70.85
2019-03-01T07:26:16.250Z,71.05
2019-03-01T07:28:46.735Z,70.96
2019-03-01T07:31:17.205Z,71.13
2019-03-01T07:33:47.698Z,71.15
2019-03-01T07:36:18.165Z,71.07
2019-03-01T07:38:48.653Z,70.89
2019-03-01T07:41:19.225Z,69.99
2019-03-01T07:43:50.212Z,69.88
2019-03-01T07:46:20.991Z,69.54
2019-03-01T07:48:51.476Z,69.88
2019-03-01T07:51:21.941Z,69.64
2019-03-01T07:53:52.443Z,69.17
2019-03-01T07:56:22.988Z,69.43
2019-03-01T07:58:57.553Z,69.92
2019-03-01T08:01:29.208Z,70.54
2019-03-01T08:03:58.835Z,70.67
2019-03-01T08:06:29.307Z,70.62
2019-03-01T08:08:59.742Z,71.04
2019-03-01T08:11:31.735Z,70.83
2019-03-01T08:14:02.485Z,70.53
2019-03-01T08:16:33.031Z,70.81
2019-03-01T08:19:03.589Z,70.77
2019-03-01T08:21:34.066Z,70.98
2019-03-01T08:24:07.683Z,70.44
2019-03-01T08:26:36.869Z,71.05
2019-03-01T08:29:07.363Z,69.89
2019-03-01T08:31:37.848Z,69.85
2019-03-01T08:34:08.278Z,69.14
2019-03-01T08:36:42.461Z,69.07
2019-03-01T08:39:10.998Z,70.35
2019-03-01T08:41:41.482Z,69.52
2019-03-01T08:44:11.996Z,69.49
2019-03-01T08:46:45.632Z,69.49
2019-03-01T08:49:15.224Z,68.88
2019-03-01T08:51:45.753Z,68.33
2019-03-01T08:54:16.262Z,69.45
2019-03-01T08:56:50.305Z,69.17
2019-03-01T08:59:19.113Z,68.77
2019-03-01T09:01:49.747Z,68.59
2019-03-01T09:04:25.823Z,67.60
2019-03-01T09:06:56.724Z,67.74
2019-03-01T09:09:28.325Z,67.30
2019-03-01T09:11:58.866Z,66.50
2019-03-01T09:14:29.470Z,66.72
2019-03-01T09:17:02.892Z,66.98
2019-03-01T09:19:33.397Z,66.63
2019-03-01T09:22:03.925Z,66.33
2019-03-01T09:24:34.417Z,66.87
2019-03-01T09:27:05.070Z,67.24
2019-03-01T09:29:41.669Z,66.25
2019-03-01T09:32:07.737Z,66.68
2019-03-01T09:34:38.231Z,66.40
2019-03-01T09:37:08.700Z,65.18
2019-03-01T09:39:39.328Z,64.61
2019-03-01T09:42:12.439Z,63.74
2019-03-01T09:44:42.057Z,62.96
2019-03-01T09:47:13.042Z,61.92
2019-03-01T09:49:43.531Z,62.74
2019-03-01T09:52:14.079Z,61.06
2019-03-01T09:54:44.582Z,61.02
2019-03-01T09:57:15.598Z,60.69
2019-03-01T09:59:46.908Z,60.12
2019-03-01T10:02:17.440Z,60.07
2019-03-01T10:04:48.118Z,59.39
2019-03-01T10:07:18.663Z,58.96
2019-03-01T10:09:49.138Z,58.02
2019-03-01T10:12:19.687Z,58.06
2019-03-01T10:14:50.179Z,58.99
2019-03-01T10:17:21.466Z,58.34
2019-03-01T10:19:52.587Z,58.74
2019-03-01T10:22:23.901Z,58.68
2019-03-01T10:24:56.228Z,59.36
2019-03-01T10:27:27.752Z,58.94
2019-03-01T10:29:58.169Z,57.96
2019-03-01T10:32:28.710Z,57.70
2019-03-01T10:34:59.134Z,56.02
2019-03-01T10:37:29.673Z,54.74
2019-03-01T10:40:00.090Z,54.68
2019-03-01T10:42:30.651Z,55.42
2019-03-01T10:45:01.161Z,56.22
2019-03-01T10:47:32.259Z,57.42
2019-03-01T10:50:02.753Z,58.30
2019-03-01T10:52:33.299Z,58.41
2019-03-01T10:55:04.492Z,57.21
2019-03-01T10:57:35.036Z,56.15
2019-03-01T11:00:08.795Z,56.59
2019-03-01T11:02:39.632Z,56.31
2019-03-01T11:05:10.119Z,55.70
2019-03-01T11:07:40.655Z,56.23
2019-03-01T11:10:22.876Z,55.53
2019-03-01T11:12:54.418Z,55.66
2019-03-01T11:15:24.845Z,55.04
2019-03-01T11:17:55.326Z,54.50
2019-03-01T11:20:26.984Z,55.67
2019-03-01T11:22:57.529Z,55.04
2019-03-01T11:25:29.100Z,54.94
2019-03-01T11:27:59.858Z,55.18
2019-03-01T11:30:35.291Z,55.70
2019-03-01T11:33:05.762Z,54.85
2019-03-01T11:35:36.352Z,55.63
2019-03-01T11:38:06.905Z,54.80
2019-03-01T11:40:39.335Z,53.52
2019-03-01T11:43:10.065Z,52.04
2019-03-01T11:45:40.557Z,52.17
2019-03-01T11:48:12.008Z,52.48
2019-03-01T11:50:42.427Z,50.94
2019-03-01T11:53:13.061Z,50.09
2019-03-01T11:55:43.636Z,48.73
2019-03-01T11:58:14.163Z,48.70
2019-03-01T12:00:52.034Z,47.86
2019-03-01T12:03:17.218Z,48.10
2019-03-01T12:05:47.736Z,49.33
2019-03-01T12:08:18.252Z,49.68
2019-03-01T12:10:48.742Z,49.28
2019-03-01T12:13:20.380Z,49.08
2019-03-01T12:15:50.862Z,49.51
2019-03-01T12:18:21.401Z,48.81
2019-03-01T12:20:51.899Z,49.30
2019-03-01T12:23:22.429Z,49.83
2019-03-01T12:25:52.861Z,48.60
2019-03-01T12:28:23.416Z,46.10
2019-03-01T12:30:53.916Z,43.39
2019-03-01T12:33:24.443Z,46.07
2019-03-01T12:35:54.881Z,46.38
2019-03-01T12:38:25.366Z,48.44
2019-03-01T12:40:55.854Z,48.66
2019-03-01T12:43:26.468Z,48.80
2019-03-01T12:45:56.965Z,48.16
2019-03-01T12:48:28.000Z,48.67
2019-03-01T12:50:58.502Z,47.60
2019-03-01T12:53:29.052Z,48.37
2019-03-01T12:55:59.552Z,49.41
2019-03-01T12:58:30.419Z,46.48
2019-03-01T13:01:01.488Z,46.60
2019-03-01T13:03:32.096Z,47.16
2019-03-01T13:06:13.459Z,46.47
2019-03-01T13:08:51.220Z,45.67
2019-03-01T13:11:19.939Z,44.50
2019-03-01T13:13:50.431Z,44.84
2019-03-01T13:16:23.410Z,46.65
2019-03-01T13:18:53.094Z,47.28
2019-03-01T13:21:23.529Z,47.30
2019-03-01T13:23:54.036Z,46.97
2019-03-01T13:26:24.549Z,47.49
2019-03-01T13:28:55.763Z,48.08
2019-03-01T13:31:26.303Z,48.40
2019-03-01T13:33:56.851Z,47.70
2019-03-01T13:36:27.348Z,47.12
2019-03-01T13:38:57.874Z,45.39
2019-03-01T13:41:28.313Z,40.91
2019-03-01T13:44:00.353Z,40.59
2019-03-01T13:46:33.282Z,40.93
2019-03-01T13:49:03.165Z,42.01
2019-03-01T13:51:33.599Z,42.30
2019-03-01T13:54:05.754Z,43.00
2019-03-01T13:56:36.835Z,39.37
2019-03-01T13:59:07.385Z,41.21
2019-03-01T14:01:37.894Z,44.64
2019-03-01T14:04:09.622Z,43.79
2019-03-01T14:06:41.286Z,44.37
2019-03-01T14:09:12.734Z,45.19
2019-03-01T14:11:43.244Z,45.39
2019-03-01T14:14:13.689Z,46.01
2019-03-01T14:16:44.182Z,47.01
2019-03-01T14:19:15.156Z,46.52
2019-03-01T14:21:48.339Z,46.41
2019-03-01T14:24:18.913Z,47.43
2019-03-01T14:26:50.661Z,48.05
2019-03-01T14:29:21.638Z,48.67
2019-03-01T14:31:52.070Z,49.33
2019-03-01T14:34:22.658Z,50.42
2019-03-01T14:36:53.179Z,50.58
2019-03-01T14:39:23.686Z,48.74
2019-03-01T14:41:54.184Z,46.93
2019-03-01T14:44:24.706Z,46.82
2019-03-01T14:46:58.432Z,47.25
2019-03-01T14:49:30.586Z,46.63
2019-03-01T14:52:01.091Z,46.98
2019-03-01T14:54:32.721Z,46.33
2019-03-01T14:57:10.036Z,45.36
2019-03-01T14:59:49.890Z,43.28
2019-03-01T15:02:29.666Z,45.32
2019-03-01T15:05:01.450Z,47.21
2019-03-01T15:07:33.456Z,49.14
2019-03-01T15:10:06.479Z,49.73
2019-03-01T15:12:36.984Z,50.73
2019-03-01T15:15:11.066Z,51.97
2019-03-01T15:17:43.933Z,51.89
2019-03-01T15:20:17.210Z,53.36
2019-03-01T15:22:48.797Z,53.55
2019-03-01T15:25:21.482Z,54.30
2019-03-01T15:27:53.811Z,54.71
2019-03-01T15:30:25.897Z,54.95
2019-03-01T15:32:58.017Z,55.01
2019-03-01T15:35:29.447Z,55.45
2019-03-01T15:38:01.034Z,55.63
2019-03-01T15:40:32.726Z,55.70
2019-03-01T15:43:03.237Z,56.01
2019-03-01T15:45:36.697Z,56.15
2019-03-01T15:48:08.727Z,58.88
2019-03-01T15:50:39.168Z,60.43
2019-03-01T15:53:10.459Z,60.54
2019-03-01T15:55:40.892Z,61.21
2019-03-01T15:58:13.425Z,61.43
2019-03-01T16:00:43.897Z,62.09
2019-03-01T16:03:14.452Z,62.73
2019-03-01T16:05:45.000Z,63.20
2019-03-01T16:08:15.427Z,64.05
2019-03-01T16:10:45.959Z,64.43
2019-03-01T16:13:16.397Z,64.62
2019-03-01T16:15:46.885Z,65.22
2019-03-01T16:18:17.301Z,65.70
2019-03-01T16:20:47.899Z,65.78
2019-03-01T16:23:18.329Z,66.05
2019-03-01T16:25:49.467Z,66.59
2019-03-01T16:28:20.091Z,67.18
2019-03-01T16:30:53.122Z,67.65
2019-03-01T16:33:26.028Z,68.21
2019-03-01T16:35:54.904Z,68.65
2019-03-01T16:38:26.277Z,68.99
2019-03-01T16:40:56.752Z,69.39
2019-03-01T16:43:28.569Z,69.84
2019-03-01T16:45:59.424Z,70.07
2019-03-01T16:48:29.963Z,70.37
2019-03-01T16:51:00.449Z,70.87
2019-03-01T16:53:31.017Z,70.99
2019-03-01T16:56:02.600Z,71.54
2019-03-01T16:58:33.888Z,71.31
2019-03-01T17:01:04.428Z,71.90
2019-03-01T17:03:34.935Z,72.50
2019-03-01T17:06:05.402Z,72.12
2019-03-01T17:08:36.357Z,72.13
2019-03-01T17:11:08.139Z,73.28
2019-03-01T17:13:38.637Z,73.50
2019-03-01T17:16:09.178Z,73.81
2019-03-01T17:18:39.611Z,74.05
2019-03-01T17:21:12.411Z,74.33
2019-03-01T17:23:42.483Z,74.63
2019-03-01T17:26:12.948Z,75.33
2019-03-01T17:28:43.445Z,75.43
2019-03-01T17:31:13.910Z,74.93
2019-03-01T17:33:45.227Z,75.23
2019-03-01T17:36:17.053Z,75.97
2019-03-01T17:38:48.399Z,75.13
2019-03-01T17:41:19.007Z,75.24
2019-03-01T17:43:49.439Z,76.01
2019-03-01T17:46:19.903Z,75.62
2019-03-01T17:48:50.334Z,75.17
2019-03-01T17:51:21.010Z,74.50
2019-03-01T17:53:52.205Z,74.90
2019-03-01T17:56:22.782Z,74.98
2019-03-01T17:58:53.234Z,74.72
2019-03-01T18:01:23.763Z,75.99
2019-03-01T18:03:54.196Z,76.23
2019-03-01T18:06:24.668Z,75.30
2019-03-01T18:08:55.093Z,75.84
2019-03-01T18:11:26.147Z,75.46
2019-03-01T18:14:00.353Z,75.25
2019-03-01T18:16:30.606Z,75.84
2019-03-01T18:19:01.135Z,77.24
2019-03-01T18:21:31.666Z,78.49
2019-03-01T18:24:02.474Z,77.03
2019-03-01T18:26:36.489Z,77.08
2019-03-01T18:29:08.434Z,77.08
2019-03-01T18:31:40.463Z,76.94
2019-03-01T18:34:10.995Z,77.29
2019-03-01T18:36:42.569Z,77.41
2019-03-01T18:39:13.007Z,78.55
2019-03-01T18:41:43.617Z,79.87
2019-03-01T18:44:14.104Z,79.31
2019-03-01T18:46:44.628Z,79.25
2019-03-01T18:49:16.747Z,79.49
2019-03-01T18:51:48.773Z,77.70
2019-03-01T18:54:19.327Z,76.75
2019-03-01T18:56:50.089Z,76.77
2019-03-01T18:59:21.700Z,76.65
2019-03-01T19:01:53.107Z,77.27
2019-03-01T19:04:29.514Z,76.90
2019-03-01T19:06:55.937Z,76.72
2019-03-01T19:09:26.567Z,76.93
2019-03-01T19:11:57.286Z,77.22
2019-03-01T19:14:27.956Z,78.76
2019-03-01T19:17:01.799Z,79.54
2019-03-01T19:19:30.781Z,78.88
2019-03-01T19:22:02.900Z,78.92
2019-03-01T19:24:42.700Z,78.71
2019-03-01T19:27:09.269Z,77.81
2019-03-01T19:29:38.949Z,78.27
2019-03-01T19:32:09.463Z,77.25
2019-03-01T19:34:40.053Z,77.69
2019-03-01T19:37:13.305Z,78.68
2019-03-01T19:39:42.760Z,77.81
2019-03-01T19:42:13.517Z,79.19
2019-03-01T19:44:44.012Z,79.05
2019-03-01T19:47:14.552Z,78.51
2019-03-01T19:49:48.136Z,78.03
2019-03-01T19:52:17.309Z,77.87
2019-03-01T19:54:47.803Z,79.10
2019-03-01T19:57:18.634Z,77.51
2019-03-01T19:59:49.662Z,77.66
2019-03-01T20:02:20.964Z,77.29
2019-03-01T20:04:52.587Z,77.82
2019-03-01T20:07:23.886Z,78.60
2019-03-01T20:09:54.420Z,77.68
2019-03-01T20:12:25.274Z,76.87
2019-03-01T20:14:55.769Z,77.04
2019-03-01T20:17:26.401Z,77.04
2019-03-01T20:19:57.936Z,77.09
2019-03-01T20:22:28.565Z,77.09
2019-03-01T20:24:59.007Z,77.24
2019-03-01T20:27:29.483Z,77.79
2019-03-01T20:29:59.917Z,77.84
2019-03-01T20:32:30.461Z,78.11
2019-03-01T20:35:00.903Z,78.71
2019-03-01T20:37:31.457Z,79.23
2019-03-01T20:40:01.962Z,77.93
2019-03-01T20:42:33.007Z,77.54
2019-03-01T20:45:04.090Z,77.94
2019-03-01T20:47:35.344Z,77.94
2019-03-01T20:50:21.877Z,78.54
2019-03-01T20:53:31.471Z,79.17
2019-03-01T20:56:47.933Z,79.50
2019-03-01T20:59:22.878Z,80.18
2019-03-01T21:01:53.402Z,79.01
2019-03-01T21:04:23.961Z,78.42
2019-03-01T21:06:54.391Z,77.74
2019-03-01T21:09:24.889Z,77.53
2019-03-01T21:11:57.831Z,77.57
2019-03-01T21:14:27.876Z,77.19
2019-03-01T21:16:59.422Z,76.35
2019-03-01T21:19:29.994Z,76.41
2019-03-01T21:22:01.602Z,76.20
2019-03-01T21:24:32.629Z,75.54
2019-03-01T21:27:03.067Z,75.39
2019-03-01T21:29:33.570Z,75.31
2019-03-01T21:32:04.025Z,75.13
2019-03-01T21:34:44.953Z,74.99
2019-03-01T21:37:19.979Z,75.53
2019-03-01T21:39:52.211Z,75.69
2019-03-01T21:42:22.656Z,75.98
2019-03-01T21:44:54.093Z,75.70
2019-03-01T21:47:24.548Z,75.72
2019-03-01T21:49:55.101Z,75.51
2019-03-01T21:52:26.529Z,75.75
2019-03-01T21:54:57.406Z,75.63
2019-03-01T21:57:31.162Z,75.64
2019-03-01T22:00:00.195Z,75.52
2019-03-01T22:02:31.205Z,75.53
2019-03-01T22:05:01.684Z,75.86
2019-03-01T22:07:33.620Z,75.87
2019-03-01T22:10:07.187Z,75.50
2019-03-01T22:12:37.939Z,75.27
2019-03-01T22:15:11.674Z,75.22
2019-03-01T22:17:42.137Z,75.44
2019-03-01T22:20:14.309Z,75.47
2019-03-01T22:22:46.375Z,75.40
2019-03-01T22:25:16.846Z,75.22
2019-03-01T22:27:47.288Z,74.98
2019-03-01T22:30:23.072Z,74.65
2019-03-01T22:32:53.132Z,74.83
2019-03-01T22:35:23.618Z,74.58
2019-03-01T22:37:54.062Z,74.28
2019-03-01T22:40:27.867Z,74.13
2019-03-01T22:42:56.687Z,73.83
2019-03-01T22:45:27.154Z,74.03
2019-03-01T22:47:57.635Z,73.52
2019-03-01T22:50:28.332Z,73.16
2019-03-01T22:52:58.844Z,73.81
2019-03-01T22:55:29.378Z,73.56
2019-03-01T22:58:00.861Z,73.61
2019-03-01T23:00:44.072Z,72.96
2019-03-01T23:03:18.837Z,72.52
2019-03-01T23:05:49.269Z,71.72
2019-03-01T23:08:19.771Z,71.50
2019-03-01T23:10:50.397Z,71.65
2019-03-01T23:13:21.842Z,71.28
2019-03-01T23:15:52.409Z,70.42
2019-03-01T23:18:22.931Z,70.04
2019-03-01T23:20:53.405Z,69.77
2019-03-01T23:23:24.797Z,70.25
2019-03-01T23:25:55.487Z,69.85
2019-03-01T23:28:25.988Z,68.56
2019-03-01T23:30:56.547Z,68.91
2019-03-01T23:33:27.706Z,69.30
2019-03-01T23:35:59.798Z,69.19
2019-03-01T23:38:30.233Z,69.53
2019-03-01T23:41:00.998Z,69.28
2019-03-01T23:43:31.792Z,69.63
2019-03-01T23:46:02.319Z,69.60
2019-03-01T23:48:32.753Z,70.24
2019-03-01T23:51:06.607Z,70.00
2019-03-01T23:53:35.612Z,70.36
2019-03-01T23:56:06.442Z,70.13
2019-03-01T23:58:36.952Z,69.21
